Time;durP1;ratioP1;P1;durP2;ratioP2;P2;SDS_P1;SDS_P2;PMS_P1;PMS_P2;Temp;Humidity;BMP_temperature;BMP_pressure;BME280_temperature;BME280_humidity;BME280_pressure;Samples;Min_cycle;Max_cycle;Signal;HPM_P1;HPM_P2
2022/01/02 11:16:22;;;;;;;;;25.00;25.00;;;;;1.30;66.05;101516.06;6186852;22;13317;31
2022/01/02 11:18:51;;;;;;;;;15.67;12.33;;;;;1.24;65.68;101519.78;6163773;23;11498;-78
2022/01/02 11:21:24;;;;;;;;;13.00;12.50;;;;;1.29;64.76;101519.03;6163536;23;11492;-79
2022/01/02 11:24:06;;;;;;;;;13.75;13.75;;;;;1.31;65.03;101522.34;6161717;23;11476;-77
2022/01/02 11:27:41;;;;;;;;;18.25;17.25;;;;;1.50;64.48;101540.06;6208035;22;11505;-73
2022/01/02 11:30:38;;;;;;;;;7.50;7.50;;;;;1.63;65.28;101534.28;6222967;23;11512;-73
2022/01/02 11:33:42;;;;;;;;;7.00;7.00;;;;;1.56;62.68;101547.25;6244184;23;11534;-73
2022/01/02 11:36:38;;;;;;;;;5.50;5.50;;;;;1.44;63.36;101546.50;6243467;23;11443;-73
2022/01/02 11:39:49;;;;;;;;;12.00;10.50;;;;;1.52;62.54;101559.72;6244746;23;11457;-74
2022/01/02 11:42:45;;;;;;;;;11.00;11.00;;;;;1.42;61.09;101559.56;6224750;23;11490;-73
2022/01/02 11:45:43;;;;;;;;;23.33;22.67;;;;;1.61;62.17;101571.03;6244676;22;11471;-72
2022/01/02 11:48:38;;;;;;;;;5.50;5.50;;;;;1.46;60.42;101565.34;6224529;23;11527;-73
2022/01/02 11:51:59;;;;;;;;;8.75;8.25;;;;;1.75;61.35;101582.44;6244903;23;11437;-70
2022/01/02 11:54:59;;;;;;;;;6.25;6.25;;;;;1.70;59.26;101585.09;6244944;23;11447;-73
2022/01/02 11:57:55;;;;;;;;;5.50;5.50;;;;;1.46;59.04;101598.06;6244848;23;11456;-74
2022/01/02 12:00:50;;;;;;;;;1.25;1.00;;;;;1.31;59.14;101598.66;6246028;22;11423;-71
2022/01/02 12:03:46;;;;;;;;;1.00;1.00;;;;;1.30;60.21;101600.56;6244270;23;11441;-73
2022/01/02 12:06:45;;;;;;;;;0.00;0.00;;;;;1.15;60.75;101604.88;6244510;23;11447;-73
2022/01/02 12:09:41;;;;;;;;;2.00;2.00;;;;;1.06;60.23;101609.91;6243470;23;11450;-73
2022/01/02 12:12:59;;;;;;;;;1.00;1.00;;;;;1.01;61.77;101613.41;6244518;23;11567;-74
2022/01/02 12:15:55;;;;;;;;;6.50;6.50;;;;;0.95;60.56;101621.72;6244447;23;11421;-73
2022/01/02 12:18:56;;;;;;;;;20.00;20.00;;;;;0.88;60.74;101635.47;6244585;23;11440;-73
2022/01/02 12:22:12;;;;;;;;;19.00;19.00;;;;;1.00;60.41;101638.16;6244222;23;8851;-74
2022/01/02 12:25:17;;;;;;;;;7.33;7.00;;;;;0.77;60.85;101658.97;6225629;23;8781;-74
2022/01/02 12:28:12;;;;;;;;;13.67;11.33;;;;;0.69;60.87;101645.75;6244218;23;11466;-74
2022/01/02 12:31:11;;;;;;;;;14.00;11.67;;;;;0.87;62.55;101652.06;6244133;23;11548;-75
2022/01/02 12:34:22;;;;;;;;;5.67;5.67;;;;;1.02;62.95;101647.75;6243882;23;11461;-76
2022/01/02 12:37:28;;;;;;;;;15.33;15.33;;;;;0.88;59.68;101654.53;6244197;23;11474;-75
2022/01/02 12:40:24;;;;;;;;;19.00;19.00;;;;;0.80;60.90;101654.94;6244030;23;11482;-75
2022/01/02 12:43:23;;;;;;;;;6.67;6.67;;;;;0.71;60.17;101675.44;6225599;23;11493;-74
2022/01/02 12:46:52;;;;;;;;;4.75;4.75;;;;;0.53;58.61;101666.34;6225122;23;11431;-75
2022/01/02 12:49:48;;;;;;;;;0.75;0.50;;;;;0.51;59.77;101663.06;6194372;23;11468;-76
2022/01/02 12:52:50;;;;;;;;;17.67;16.67;;;;;0.42;59.69;101669.13;6225046;23;11544;-75
2022/01/02 12:55:57;;;;;;;;;32.67;32.67;;;;;0.35;59.92;101665.69;6244292;23;8821;-76
2022/01/02 12:58:54;;;;;;;;;28.00;22.67;;;;;0.47;61.17;101669.22;6245375;23;8789;-76
2022/01/02 13:01:57;;;;;;;;;25.67;24.00;;;;;0.39;61.68;101675.06;6244181;23;8876;-75
2022/01/02 13:04:55;;;;;;;;;18.67;18.67;;;;;0.24;60.74;101687.25;6243217;23;8781;-75
2022/01/02 13:08:01;;;;;;;;;26.67;23.67;;;;;0.17;61.73;101693.88;6243754;23;9339;-75
2022/01/02 13:11:08;;;;;;;;;24.33;22.33;;;;;0.08;62.34;101708.88;6244016;23;9594;-75
2022/01/02 13:14:04;;;;;;;;;20.67;20.00;;;;;0.02;62.30;101713.38;6243698;23;9590;-75
2022/01/02 13:17:00;;;;;;;;;15.33;12.67;;;;;-0.17;61.12;101722.69;6244132;23;8808;-75
2022/01/02 13:20:18;;;;;;;;;8.33;8.33;;;;;-0.18;62.54;101715.59;6243970;23;8841;-74
2022/01/02 13:23:14;;;;;;;;;35.00;33.33;;;;;-0.25;61.64;101729.31;6223597;23;8785;-74
2022/01/02 13:26:18;;;;;;;;;25.67;25.67;;;;;-0.40;62.28;101726.19;6243984;23;8781;-74
2022/01/02 13:29:20;;;;;;;;;10.33;10.33;;;;;-0.53;62.64;101735.41;6244063;23;8789;-74
2022/01/02 13:32:18;;;;;;;;;19.00;16.67;;;;;-0.50;63.65;101732.19;6243759;23;8805;-74
2022/01/02 13:35:19;;;;;;;;;17.33;16.00;;;;;-0.59;63.47;101728.16;6243764;23;8797;-74
2022/01/02 13:38:17;;;;;;;;;31.00;30.33;;;;;-0.67;64.65;101712.19;6243662;23;8793;-73
2022/01/02 13:41:13;;;;;;;;;42.67;32.33;;;;;-0.67;63.89;101712.19;6243964;23;8789;-72
2022/01/02 13:44:15;;;;;;;;;36.33;25.67;;;;;-0.76;65.84;101708.16;6243619;23;8781;-73
2022/01/02 13:47:12;;;;;;;;;14.67;14.67;;;;;-0.79;64.76;101727.59;6243648;23;8832;-73
2022/01/02 13:50:09;;;;;;;;;18.33;18.33;;;;;-0.84;64.75;101728.31;6243716;23;8793;-73
2022/01/02 13:53:13;;;;;;;;;22.67;21.67;;;;;-0.90;63.60;101719.19;6243259;23;8789;-74
2022/01/02 13:56:15;;;;;;;;;23.33;21.67;;;;;-0.68;65.60;101740.41;6243403;23;9523;-74
2022/01/02 13:59:11;;;;;;;;;24.67;20.67;;;;;-0.51;63.33;101738.69;6243126;23;8903;-74
2022/01/02 14:02:07;;;;;;;;;19.67;19.67;;;;;-0.76;64.44;101741.56;6243643;23;8887;-72
2022/01/02 14:05:03;;;;;;;;;19.67;18.67;;;;;-0.77;64.44;101747.22;6223430;23;8805;-73
2022/01/02 14:08:13;;;;;;;;;17.33;14.33;;;;;-0.83;64.56;101750.88;6243405;23;8793;-73
2022/01/02 14:11:13;;;;;;;;;18.67;18.67;;;;;-0.88;65.58;101763.22;6243017;23;8823;-74
2022/01/02 14:14:16;;;;;;;;;19.00;19.00;;;;;-0.92;64.93;101750.31;6223428;23;9475;-72
2022/01/02 14:20:07;;;;;;;;;4.00;4.00;;;;;-1.18;63.83;101776.75;6243353;23;8777;-73
2022/01/02 14:23:06;;;;;;;;;18.67;18.67;;;;;-1.27;63.96;101767.25;6223468;23;8801;-73
2022/01/02 14:26:02;;;;;;;;;33.33;30.00;;;;;-1.35;64.89;101777.59;6243346;23;8817;-72
2022/01/02 14:29:00;;;;;;;;;33.00;33.00;;;;;-1.23;64.14;101789.34;6243682;23;8801;-73
2022/01/02 14:31:56;;;;;;;;;25.00;24.33;;;;;-1.27;64.94;101791.69;6242662;23;8784;-73
2022/01/02 14:34:52;;;;;;;;;22.00;21.67;;;;;-1.29;63.96;101798.41;6242130;23;9471;-73
2022/01/02 14:37:47;;;;;;;;;24.67;22.67;;;;;-1.24;63.38;101802.09;6241635;23;8812;-73
2022/01/02 14:40:43;;;;;;;;;32.00;31.67;;;;;-1.24;62.77;101803.97;6222081;23;8801;-73
2022/01/02 14:43:39;;;;;;;;;28.00;28.00;;;;;-1.22;64.10;101804.59;6242149;23;8916;-71
2022/01/02 14:46:36;;;;;;;;;46.67;40.00;;;;;-1.20;65.21;101802.47;6222383;23;9523;-72
2022/01/02 14:49:32;;;;;;;;;39.00;36.67;;;;;-1.34;63.22;101795.53;6241594;23;8931;-74
2022/01/02 14:52:27;;;;;;;;;42.33;36.33;;;;;-1.37;64.55;101785.13;6241907;23;8896;-73
2022/01/02 14:55:29;;;;;;;;;23.33;21.67;;;;;-1.34;63.96;101785.50;6241233;23;9531;-75
2022/01/02 14:58:25;;;;;;;;;20.67;19.67;;;;;-1.41;64.54;101782.84;6241693;23;8897;-77
2022/01/02 15:01:24;;;;;;;;;33.67;29.33;;;;;-1.36;63.44;101801.19;6242010;23;9472;-74
2022/01/02 15:04:20;;;;;;;;;31.00;29.33;;;;;-1.13;63.85;101808.66;6241765;23;9506;-75
2022/01/02 15:07:15;;;;;;;;;18.33;18.33;;;;;-1.24;62.66;101806.69;6242231;23;9479;-77
2022/01/02 15:10:12;;;;;;;;;30.33;30.33;;;;;-1.21;63.72;101809.78;6242867;23;8801;-75
2022/01/02 15:13:08;;;;;;;;;17.67;17.67;;;;;-1.23;63.27;101794.75;6209278;23;8835;-68
2022/01/02 15:16:05;;;;;;;;;9.67;9.67;;;;;-1.42;63.35;101800.19;6216317;23;9477;-68
2022/01/02 15:19:01;;;;;;;;;10.00;10.00;;;;;-1.25;64.44;101794.16;6216144;23;8907;-69
2022/01/02 15:21:56;;;;;;;;;4.67;4.67;;;;;-1.38;63.96;101807.88;6216198;23;8827;-69
2022/01/02 15:24:52;;;;;;;;;3.00;3.00;;;;;-1.54;63.59;101803.84;6215864;23;9497;-69
2022/01/02 15:27:47;;;;;;;;;6.00;6.00;;;;;-1.54;65.05;101799.25;6216349;23;8806;-69
2022/01/02 15:30:44;;;;;;;;;3.67;3.67;;;;;-1.46;64.28;101792.72;6216232;23;9603;-69
2022/01/02 15:33:30;;;;;;;;;3.00;3.00;;;;;-1.46;63.28;101806.28;6217167;23;9480;-69
2022/01/02 15:36:25;;;;;;;;;3.00;3.00;;;;;-1.60;63.56;101824.59;6215965;23;9804;-69
2022/01/02 15:39:21;;;;;;;;;4.00;4.00;;;;;-1.51;63.92;101834.09;6216250;23;8780;-69
2022/01/02 15:42:16;;;;;;;;;6.00;3.00;;;;;-1.50;64.58;101834.94;6212733;23;8819;-69
2022/01/02 15:45:13;;;;;;;;;7.00;7.00;;;;;-1.39;67.07;101828.75;6214850;23;8804;-69
2022/01/02 15:48:09;;;;;;;;;4.00;4.00;;;;;-1.44;63.55;101840.31;6215626;23;8787;-69
2022/01/02 15:51:04;;;;;;;;;3.33;3.33;;;;;-1.51;63.69;101842.25;6213016;23;8825;-69
2022/01/02 15:54:00;;;;;;;;;7.00;6.00;;;;;-1.54;63.27;101836.41;6214702;23;8905;-68
2022/01/02 15:56:55;;;;;;;;;12.00;12.00;;;;;-1.49;64.22;101839.28;6215345;23;8788;-69
2022/01/02 15:59:51;;;;;;;;;14.33;14.33;;;;;-1.45;65.03;101825.06;6215404;23;8815;-67
2022/01/02 16:02:46;;;;;;;;;3.00;2.33;;;;;-1.42;64.26;101838.19;6232055;23;8908;-68
2022/01/02 16:05:43;;;;;;;;;13.67;13.00;;;;;-1.47;64.81;101851.56;6214642;23;8922;-69
2022/01/02 16:08:10;;;;;;;;;13.67;12.33;;;;;-1.37;64.42;101861.13;6223979;23;8814;-69
2022/01/02 16:11:06;;;;;;;;;13.33;10.00;;;;;-1.41;66.64;101845.25;6216164;23;8835;-68
2022/01/02 16:14:04;;;;;;;;;9.00;9.00;;;;;-1.42;65.10;101849.03;6232958;23;9679;-68
2022/01/02 16:17:00;;;;;;;;;14.33;12.67;;;;;-1.49;63.96;101837.41;6215265;23;8892;-69
2022/01/02 16:19:56;;;;;;;;;9.67;9.67;;;;;-1.45;63.50;101843.25;6215138;23;8822;-69
2022/01/02 16:22:52;;;;;;;;;11.33;11.33;;;;;-1.47;64.45;101842.59;6214659;23;8799;-67
2022/01/02 16:25:47;;;;;;;;;22.67;22.67;;;;;-1.42;63.83;101843.59;6215188;23;8866;-70
2022/01/02 16:28:43;;;;;;;;;14.33;14.33;;;;;-1.41;64.43;101845.25;6214808;23;8807;-69
2022/01/02 16:31:38;;;;;;;;;10.00;10.00;;;;;-1.57;62.99;101850.44;6214930;23;8873;-71
2022/01/02 16:34:34;;;;;;;;;12.67;12.67;;;;;-1.45;63.81;101852.22;6214238;23;9509;-68
2022/01/02 16:37:30;;;;;;;;;19.67;18.00;;;;;-1.55;63.65;101840.19;6214632;23;8791;-68
2022/01/02 16:40:25;;;;;;;;;14.00;14.00;;;;;-1.60;64.27;101851.72;6231985;23;8825;-69
2022/01/02 16:43:21;;;;;;;;;36.67;34.67;;;;;-1.53;64.50;101851.66;6215159;23;8854;-68
2022/01/02 16:46:17;;;;;;;;;45.00;38.33;;;;;-1.52;67.01;101846.00;6214406;23;8818;-69
2022/01/02 16:48:53;;;;;;;;;66.67;49.33;;;;;-1.58;64.78;101846.88;6223809;23;8881;-69
2022/01/02 16:51:21;;;;;;;;;62.33;50.67;;;;;-1.36;65.24;101850.03;6223850;23;8795;-69
2022/01/02 16:54:16;;;;;;;;;68.33;50.33;;;;;-1.65;64.32;101856.97;6214867;23;8847;-69
2022/01/02 16:57:12;;;;;;;;;78.33;57.67;;;;;-1.52;64.48;101861.47;6215120;23;8792;-69
2022/01/02 16:59:48;;;;;;;;;79.50;64.00;;;;;-1.50;67.62;101865.59;6215047;23;8866;-68
2022/01/02 17:02:15;;;;;;;;;87.00;64.00;;;;;-1.57;64.85;101874.84;6223815;23;9497;-68
2022/01/02 17:05:12;;;;;;;;;72.75;57.75;;;;;-1.56;65.55;101862.94;6214624;23;8815;-68
2022/01/02 17:07:54;;;;;;;;;97.50;71.00;;;;;-1.50;64.84;101860.19;6214713;23;8807;-68
2022/01/02 17:10:23;;;;;;;;;102.50;70.50;;;;;-1.51;66.72;101863.94;6223270;23;8780;-68
2022/01/02 17:13:18;;;;;;;;;93.25;73.00;;;;;-1.58;68.28;101860.47;6214399;23;8807;-68
2022/01/02 17:16:14;;;;;;;;;93.33;69.33;;;;;-1.48;67.50;101863.50;6215119;23;8787;-69
2022/01/02 17:19:12;;;;;;;;;95.75;71.00;;;;;-1.39;67.21;101861.31;6214185;23;8822;-69
2022/01/02 17:21:41;;;;;;;;;81.00;60.33;;;;;-1.42;66.21;101849.03;6215292;23;8807;-68
2022/01/02 17:24:09;;;;;;;;;90.25;67.50;;;;;-1.21;67.79;101850.50;6215358;23;9471;-68
2022/01/02 17:26:37;;;;;;;;;69.67;55.67;;;;;-1.34;65.68;101847.09;6223559;23;8802;-69
2022/01/02 17:29:33;;;;;;;;;50.33;44.00;;;;;-1.27;67.45;101842.44;6213598;23;8783;-68
2022/01/02 17:32:28;;;;;;;;;83.67;65.33;;;;;-1.22;67.46;101834.47;6213478;23;8795;-68
2022/01/02 17:35:24;;;;;;;;;68.33;54.00;;;;;-1.12;66.80;101845.63;6214654;23;8787;-68
2022/01/02 17:38:19;;;;;;;;;69.33;53.33;;;;;-1.14;65.40;101850.44;6213262;23;8873;-68
2022/01/02 17:41:17;;;;;;;;;66.67;56.00;;;;;-1.18;66.01;101879.09;6213822;23;8784;-68
2022/01/02 17:43:46;;;;;;;;;67.67;51.67;;;;;-1.17;67.02;101872.59;6223590;23;8811;-69
2022/01/02 17:46:48;;;;;;;;;54.67;42.67;;;;;-1.06;69.04;101854.75;6212970;23;8796;-70
2022/01/02 17:49:33;;;;;;;;;48.33;43.00;;;;;-1.18;69.73;101854.66;6223114;23;8780;-69
2022/01/02 17:52:28;;;;;;;;;43.67;43.67;;;;;-1.12;70.50;101851.88;6212991;23;8792;-69
2022/01/02 17:55:12;;;;;;;;;21.67;21.67;;;;;-1.21;68.42;101864.09;6213003;23;9525;-69
2022/01/02 17:58:07;;;;;;;;;26.33;21.00;;;;;-1.20;69.98;101862.19;6214510;23;8815;-68
2022/01/02 18:00:35;;;;;;;;;16.00;15.00;;;;;-1.12;68.68;101861.91;6197115;23;8795;-69
2022/01/02 18:03:31;;;;;;;;;17.33;17.33;;;;;-1.05;70.07;101848.25;6213865;23;8822;-68
2022/01/02 18:06:12;;;;;;;;;12.00;12.00;;;;;-1.04;69.16;101850.75;6214069;23;8803;-69
2022/01/02 18:08:41;;;;;;;;;9.33;9.33;;;;;-1.15;68.08;101846.03;6222727;23;8808;-68
2022/01/02 18:11:09;;;;;;;;;14.33;12.00;;;;;-1.13;67.47;101874.66;6221577;23;8878;-70
2022/01/02 18:14:04;;;;;;;;;12.33;12.33;;;;;-1.19;67.45;101902.69;6214078;23;8901;-69
2022/01/02 18:17:00;;;;;;;;;15.33;15.33;;;;;-1.08;69.95;101898.41;6193167;23;8878;-68
2022/01/02 18:19:42;;;;;;;;;59.00;52.33;;;;;-1.06;69.85;101887.34;6214145;23;8807;-68
2022/01/02 18:22:38;;;;;;;;;30.67;30.67;;;;;-1.12;69.34;101875.47;6192986;23;8825;-68
2022/01/02 18:25:25;;;;;;;;;22.33;20.00;;;;;-1.16;71.09;101864.22;6213643;23;8846;-69
2022/01/02 18:27:55;;;;;;;;;27.00;22.00;;;;;-1.14;71.90;101870.28;6222729;23;8799;-68
2022/01/02 18:30:50;;;;;;;;;18.67;18.67;;;;;-1.08;70.75;101876.69;6213651;23;8807;-69
2022/01/02 18:33:46;;;;;;;;;20.33;19.33;;;;;-1.01;67.41;101849.47;6211828;23;8803;-68
2022/01/02 18:36:24;;;;;;;;;18.00;17.33;;;;;-1.10;68.18;101832.63;6213884;23;8795;-69
2022/01/02 18:38:52;;;;;;;;;7.00;7.00;;;;;-1.09;70.93;101828.88;6188077;23;8807;-69
2022/01/02 18:41:20;;;;;;;;;16.33;16.33;;;;;-1.05;68.76;101838.22;6212837;23;8915;-69
2022/01/02 18:43:47;;;;;;;;;13.00;13.00;;;;;-1.10;69.11;101832.63;6196370;23;8838;-68
2022/01/02 18:46:29;;;;;;;;;19.67;19.67;;;;;-1.18;68.54;101820.19;6214415;23;8901;-68
2022/01/02 18:48:56;;;;;;;;;17.33;16.00;;;;;-1.30;68.76;101808.44;6224840;23;8807;-68
2022/01/02 18:51:38;;;;;;;;;15.33;12.67;;;;;-1.28;69.99;101813.63;6192517;23;8788;-70
2022/01/02 18:54:36;;;;;;;;;13.00;13.00;;;;;-1.12;69.75;101832.03;6213130;23;8806;-70
2022/01/02 18:57:04;;;;;;;;;16.33;16.00;;;;;-1.29;68.95;101839.94;6189711;23;8857;-70
2022/01/02 18:59:59;;;;;;;;;15.00;15.00;;;;;-1.29;68.78;101845.38;6194826;23;8827;-70
2022/01/02 19:02:55;;;;;;;;;19.33;17.67;;;;;-1.33;69.81;101844.16;6214477;23;8855;-70
2022/01/02 19:05:52;;;;;;;;;15.67;15.67;;;;;-1.56;69.65;101847.50;6215360;23;8807;-70
2022/01/02 19:08:20;;;;;;;;;15.33;15.33;;;;;-1.45;69.63;101837.81;6222816;23;8878;-70
2022/01/02 19:10:49;;;;;;;;;13.00;12.33;;;;;-1.51;71.47;101836.81;6224878;23;8807;-69
2022/01/02 19:13:45;;;;;;;;;10.67;10.67;;;;;-1.55;72.95;101832.88;6204926;23;8890;-69
2022/01/02 19:16:40;;;;;;;;;6.67;6.67;;;;;-1.46;72.50;101828.84;6215958;23;8779;-69
2022/01/02 19:19:36;;;;;;;;;13.67;12.67;;;;;-1.54;71.22;101828.28;6215959;23;8807;-68
2022/01/02 19:22:31;;;;;;;;;16.67;16.67;;;;;-1.62;70.42;101829.38;6215350;23;8807;-69
2022/01/02 19:25:27;;;;;;;;;18.67;18.67;;;;;-1.63;70.89;101830.44;6215890;23;8827;-70
2022/01/02 19:28:08;;;;;;;;;16.00;12.00;;;;;-1.67;72.05;101823.81;6215790;23;8814;-69
2022/01/02 19:31:04;;;;;;;;;12.33;12.33;;;;;-1.63;72.72;101819.59;6215709;23;8806;-69
2022/01/02 19:34:02;;;;;;;;;15.67;15.67;;;;;-1.64;70.89;101803.53;6232826;23;8791;-68
2022/01/02 19:36:57;;;;;;;;;16.00;16.00;;;;;-1.71;70.39;101796.28;6214693;23;8953;-68
2022/01/02 19:39:53;;;;;;;;;10.33;10.33;;;;;-1.71;69.70;101788.16;6215869;23;8787;-67
2022/01/02 19:42:49;;;;;;;;;13.67;13.67;;;;;-1.69;69.38;101787.91;6215527;23;8869;-68
2022/01/02 19:45:44;;;;;;;;;16.00;16.00;;;;;-1.73;71.52;101797.56;6215812;23;8807;-69
2022/01/02 19:48:40;;;;;;;;;14.33;12.67;;;;;-1.85;70.08;101799.34;6215319;23;8796;-69
2022/01/02 19:51:36;;;;;;;;;12.33;12.33;;;;;-1.86;69.66;101786.81;6215342;23;9600;-70
2022/01/02 19:54:32;;;;;;;;;13.67;12.67;;;;;-1.67;70.77;101801.28;6213381;23;8791;-69
2022/01/02 19:57:30;;;;;;;;;10.67;10.67;;;;;-1.98;70.37;101806.53;6233271;23;8865;-71
2022/01/02 20:00:25;;;;;;;;;12.00;12.00;;;;;-2.02;70.14;101808.00;6232859;23;9392;-68
2022/01/02 20:03:21;;;;;;;;;13.33;12.67;;;;;-2.15;70.86;101791.84;6215620;23;8814;-70
2022/01/02 20:06:16;;;;;;;;;16.00;16.00;;;;;-2.06;71.55;101801.38;6232223;23;8800;-69
2022/01/02 20:09:12;;;;;;;;;14.00;13.67;;;;;-2.08;71.60;101797.22;6215491;23;8787;-69
2022/01/02 20:12:08;;;;;;;;;9.67;9.67;;;;;-2.16;72.03;101792.06;6216497;23;8799;-70
2022/01/02 20:15:07;;;;;;;;;11.33;11.33;;;;;-2.15;71.75;101791.84;6214550;23;8814;-69
2022/01/02 20:18:04;;;;;;;;;15.00;15.00;;;;;-2.34;72.39;101798.25;6214425;23;8788;-69
2022/01/02 20:21:00;;;;;;;;;18.67;18.33;;;;;-2.24;73.18;101793.16;6213454;23;8799;-68
2022/01/02 20:23:55;;;;;;;;;14.33;14.33;;;;;-2.36;72.61;101805.75;6214183;23;8842;-68
2022/01/02 20:26:51;;;;;;;;;12.00;10.67;;;;;-2.47;72.94;101804.56;6194461;23;8823;-69
2022/01/02 20:29:48;;;;;;;;;11.33;11.33;;;;;-2.50;73.62;101813.13;6214142;23;9020;-69
2022/01/02 20:32:44;;;;;;;;;13.00;13.00;;;;;-2.60;74.88;101810.91;6215147;23;8910;-69
2022/01/02 20:35:41;;;;;;;;;7.33;7.33;;;;;-2.46;75.49;101805.38;6214038;23;8803;-69
2022/01/02 20:38:37;;;;;;;;;12.33;12.33;;;;;-2.61;75.43;101808.38;6214283;23;8788;-68
2022/01/02 20:41:34;;;;;;;;;9.33;9.33;;;;;-2.56;75.53;101800.44;6214123;23;9522;-69
2022/01/02 20:44:30;;;;;;;;;15.33;13.00;;;;;-2.69;76.07;101795.91;6214615;23;8784;-68
2022/01/02 20:47:26;;;;;;;;;20.67;20.67;;;;;-2.75;76.44;101796.81;6213198;23;9570;-69
2022/01/02 20:50:22;;;;;;;;;19.00;19.00;;;;;-2.86;77.19;101795.59;6213880;23;8934;-68
2022/01/02 20:53:19;;;;;;;;;21.67;21.67;;;;;-2.80;77.37;101786.63;6213671;23;8854;-69
2022/01/02 20:56:14;;;;;;;;;18.00;18.00;;;;;-2.70;80.15;101769.06;6214026;23;8803;-69
2022/01/02 20:59:25;;;;;;;;;13.67;12.67;;;;;-2.62;77.94;101766.94;6213673;23;8748;-69
2022/01/02 21:02:21;;;;;;;;;24.67;18.67;;;;;-2.77;77.80;101768.25;6194097;23;8884;-68
2022/01/02 21:05:18;;;;;;;;;23.33;20.33;;;;;-2.62;78.70;101769.63;6194007;23;8835;-68
2022/01/02 21:08:15;;;;;;;;;21.67;19.33;;;;;-2.70;80.11;101769.06;6213509;23;9505;-68
2022/01/02 21:11:10;;;;;;;;;18.33;16.67;;;;;-2.80;81.77;101766.84;6213022;23;8822;-69
2022/01/02 21:14:06;;;;;;;;;10.00;10.00;;;;;-2.68;80.11;101761.56;6208328;23;8791;-70
2022/01/02 21:17:02;;;;;;;;;7.00;7.00;;;;;-2.90;78.49;101764.59;6215104;23;8803;-70
2022/01/02 21:19:57;;;;;;;;;12.00;11.33;;;;;-2.94;79.48;101757.09;6231819;23;8831;-70
2022/01/02 21:22:54;;;;;;;;;17.33;17.33;;;;;-2.98;81.57;101751.31;6214893;23;8831;-68
2022/01/02 21:25:50;;;;;;;;;17.33;17.33;;;;;-2.80;82.29;101734.34;6214904;23;9529;-68
2022/01/02 21:28:45;;;;;;;;;19.33;18.67;;;;;-2.92;80.76;101742.31;6214666;23;8811;-69
2022/01/02 21:31:41;;;;;;;;;20.33;20.33;;;;;-3.11;80.88;101756.78;6214851;23;8811;-68
2022/01/02 21:34:37;;;;;;;;;28.33;22.67;;;;;-3.11;81.31;101759.47;6214871;23;8823;-69
2022/01/02 21:37:33;;;;;;;;;43.67;36.33;;;;;-3.13;80.42;101739.91;6230930;23;8795;-69
2022/01/02 21:40:32;;;;;;;;;38.67;34.67;;;;;-3.19;80.10;101740.78;6232749;23;9525;-68
2022/01/02 21:43:28;;;;;;;;;38.33;37.67;;;;;-3.25;80.23;101739.75;6214627;23;8795;-68
2022/01/02 21:46:24;;;;;;;;;38.33;36.00;;;;;-3.36;81.38;101730.44;6214902;23;9528;-68
2022/01/02 21:49:22;;;;;;;;;35.67;33.33;;;;;-3.18;81.42;101731.59;6214008;23;8802;-68
2022/01/02 21:52:18;;;;;;;;;23.33;22.67;;;;;-3.24;80.67;101722.47;6232331;23;8811;-68
2022/01/02 21:55:14;;;;;;;;;24.00;21.67;;;;;-3.27;81.39;101727.47;6214560;23;8784;-68
2022/01/02 21:58:10;;;;;;;;;12.33;12.33;;;;;-3.09;80.35;101735.72;6214850;23;8876;-68
2022/01/02 22:01:05;;;;;;;;;12.67;12.67;;;;;-2.95;79.65;101725.69;6215766;23;8783;-69
2022/01/02 22:04:01;;;;;;;;;7.67;7.67;;;;;-2.77;78.82;101731.19;6214841;23;8795;-69
2022/01/02 22:06:58;;;;;;;;;12.00;12.00;;;;;-2.79;77.60;101725.16;6214642;23;8811;-69
2022/01/02 22:09:54;;;;;;;;;7.00;7.00;;;;;-2.88;78.03;101721.06;6214600;23;8849;-70
2022/01/02 22:12:50;;;;;;;;;10.00;10.00;;;;;-2.91;78.28;101726.91;6214052;23;8788;-69
2022/01/02 22:15:47;;;;;;;;;10.00;10.00;;;;;-2.85;78.43;101715.19;6213659;23;8807;-69
2022/01/02 22:18:44;;;;;;;;;9.67;7.67;;;;;-2.98;79.29;101699.88;6214443;23;8878;-69
2022/01/02 22:21:40;;;;;;;;;15.00;15.00;;;;;-3.04;79.89;101697.19;6212984;23;8906;-69
2022/01/02 22:24:37;;;;;;;;;18.00;18.00;;;;;-3.03;79.36;101685.31;6193771;23;9504;-68
2022/01/02 22:27:34;;;;;;;;;13.00;12.00;;;;;-3.05;79.80;101688.25;6214285;23;8822;-69
2022/01/02 22:30:32;;;;;;;;;17.33;17.33;;;;;-2.96;79.43;101678.00;6214485;23;8783;-69
2022/01/02 22:33:30;;;;;;;;;10.00;10.00;;;;;-3.10;79.31;101674.53;6213335;23;8918;-68
2022/01/02 22:36:25;;;;;;;;;15.00;12.33;;;;;-2.90;79.50;101663.59;6213499;23;9485;-69
2022/01/02 22:39:23;;;;;;;;;10.67;10.67;;;;;-2.86;80.08;101664.81;6213155;23;8800;-69
2022/01/02 22:42:20;;;;;;;;;13.67;11.33;;;;;-3.01;79.10;101666.97;6193252;23;9492;-69
2022/01/02 22:45:16;;;;;;;;;18.33;12.67;;;;;-3.10;79.02;101669.94;6213239;23;9642;-69
2022/01/02 22:48:14;;;;;;;;;9.00;9.00;;;;;-3.20;78.81;101669.59;6213294;23;8902;-68
2022/01/02 22:51:11;;;;;;;;;14.33;14.33;;;;;-2.89;80.82;101660.66;6212538;23;8853;-68
2022/01/02 22:54:07;;;;;;;;;9.67;8.33;;;;;-2.93;79.69;101659.44;6213192;23;9482;-70
2022/01/02 22:57:05;;;;;;;;;18.00;18.00;;;;;-2.96;79.89;101661.75;6213465;23;8904;-68
2022/01/02 23:00:02;;;;;;;;;12.00;9.33;;;;;-3.06;79.93;101666.81;6213170;23;8795;-69
2022/01/02 23:03:04;;;;;;;;;13.00;13.00;;;;;-2.92;80.06;101652.97;6212895;23;8906;-69
2022/01/02 23:06:15;;;;;;;;;12.33;12.33;;;;;-3.00;79.76;101657.81;6213458;23;8799;-71
2022/01/02 23:09:10;;;;;;;;;9.67;9.67;;;;;-2.95;80.39;101645.28;6214226;23;8799;-69
2022/01/02 23:12:07;;;;;;;;;12.67;12.67;;;;;-3.04;79.90;101638.50;6212838;23;8788;-70
2022/01/02 23:15:02;;;;;;;;;18.67;18.00;;;;;-3.12;80.37;101628.75;6213380;23;8892;-69
2022/01/02 23:17:59;;;;;;;;;14.33;14.33;;;;;-3.08;80.51;101615.59;6213292;23;8783;-70
2022/01/02 23:20:57;;;;;;;;;19.33;19.33;;;;;-3.15;79.69;101601.28;6212829;23;8799;-68
2022/01/02 23:23:54;;;;;;;;;36.00;34.67;;;;;-3.11;79.86;101616.03;6212049;23;8815;-69
2022/01/02 23:26:50;;;;;;;;;91.50;72.75;;;;;-3.04;80.11;101618.72;6213158;23;9493;-69
2022/01/02 23:29:47;;;;;;;;;96.25;73.25;;;;;-3.00;79.53;101607.22;6213881;23;8865;-69
2022/01/02 23:32:44;;;;;;;;;82.75;66.00;;;;;-2.90;80.51;101593.22;6215230;23;8799;-69
2022/01/02 23:35:42;;;;;;;;;93.25;75.00;;;;;-2.99;80.00;101613.44;6215172;23;8784;-69
2022/01/02 23:38:38;;;;;;;;;85.00;67.00;;;;;-3.06;78.96;101610.00;6215060;23;8902;-69
2022/01/02 23:41:34;;;;;;;;;86.50;69.00;;;;;-2.89;79.68;101606.53;6216114;23;8792;-69
2022/01/02 23:44:30;;;;;;;;;76.75;60.75;;;;;-2.96;78.70;101605.75;6215074;23;8795;-69
2022/01/02 23:47:27;;;;;;;;;87.75;69.50;;;;;-3.04;78.76;101603.31;6213703;23;8815;-68
2022/01/02 23:50:25;;;;;;;;;80.00;66.00;;;;;-2.98;79.52;101613.25;6214329;23;8843;-68
2022/01/02 23:53:21;;;;;;;;;69.50;57.50;;;;;-2.82;80.22;101595.66;6195031;23;8803;-68
2022/01/02 23:56:23;;;;;;;;;78.25;63.50;;;;;-2.71;80.10;101577.84;6214664;23;8967;-68
2022/01/02 23:59:19;;;;;;;;;72.25;58.25;;;;;-2.64;79.03;101568.63;6214700;23;8775;-68
